sensor_id;sensor_type;location;lat;lon;timestamp;temperature;humidity
16158;DHT22;8184;60.256;18.694;2023-12-20T00:01:51;0.10;99.90
16158;DHT22;8184;60.256;18.694;2023-12-20T00:04:19;0.10;99.90
16158;DHT22;8184;60.256;18.694;2023-12-20T00:06:47;0.10;99.90
16158;DHT22;8184;60.256;18.694;2023-12-20T00:09:16;0.00;99.90
16158;DHT22;8184;60.256;18.694;2023-12-20T00:11:46;0.00;99.90
16158;DHT22;8184;60.256;18.694;2023-12-20T00:14:14;0.00;99.90
16158;DHT22;8184;60.256;18.694;2023-12-20T00:16:42;0.00;99.90
16158;DHT22;8184;60.256;18.694;2023-12-20T00:19:12;-0.10;99.90
16158;DHT22;8184;60.256;18.694;2023-12-20T00:21:40;-0.10;99.90
16158;DHT22;8184;60.256;18.694;2023-12-20T00:24:09;-0.10;99.90
16158;DHT22;8184;60.256;18.694;2023-12-20T00:26:37;-0.10;99.90
16158;DHT22;8184;60.256;18.694;2023-12-20T00:29:07;-0.20;99.90
16158;DHT22;8184;60.256;18.694;2023-12-20T00:31:35;-0.10;99.90
16158;DHT22;8184;60.256;18.694;2023-12-20T00:34:03;-0.10;99.90
16158;DHT22;8184;60.256;18.694;2023-12-20T00:36:32;-0.20;99.90
16158;DHT22;8184;60.256;18.694;2023-12-20T00:39:00;-0.20;99.90
16158;DHT22;8184;60.256;18.694;2023-12-20T00:41:30;-0.20;99.90
16158;DHT22;8184;60.256;18.694;2023-12-20T00:43:58;-0.10;99.90
16158;DHT22;8184;60.256;18.694;2023-12-20T00:46:28;-0.20;99.90
16158;DHT22;8184;60.256;18.694;2023-12-20T00:48:56;-0.20;99.90
16158;DHT22;8184;60.256;18.694;2023-12-20T00:51:24;-0.20;99.90
16158;DHT22;8184;60.256;18.694;2023-12-20T00:53:53;-0.30;99.90
16158;DHT22;8184;60.256;18.694;2023-12-20T00:56:21;-0.40;99.90
16158;DHT22;8184;60.256;18.694;2023-12-20T00:58:50;-0.30;99.90
16158;DHT22;8184;60.256;18.694;2023-12-20T01:01:18;-0.30;99.90
16158;DHT22;8184;60.256;18.694;2023-12-20T01:03:48;-0.30;99.90
16158;DHT22;8184;60.256;18.694;2023-12-20T01:06:18;-0.30;99.90
16158;DHT22;8184;60.256;18.694;2023-12-20T01:08:46;-0.40;99.90
16158;DHT22;8184;60.256;18.694;2023-12-20T01:11:15;-0.40;99.90
16158;DHT22;8184;60.256;18.694;2023-12-20T01:13:43;-0.50;99.90
16158;DHT22;8184;60.256;18.694;2023-12-20T01:16:11;-0.50;99.90
16158;DHT22;8184;60.256;18.694;2023-12-20T01:18:40;-0.50;99.90
16158;DHT22;8184;60.256;18.694;2023-12-20T01:21:09;-0.60;99.90
16158;DHT22;8184;60.256;18.694;2023-12-20T01:23:38;-0.60;99.90
16158;DHT22;8184;60.256;18.694;2023-12-20T01:26:06;-0.50;99.90
16158;DHT22;8184;60.256;18.694;2023-12-20T01:28:34;-0.50;99.90
16158;DHT22;8184;60.256;18.694;2023-12-20T01:31:03;-0.60;99.90
16158;DHT22;8184;60.256;18.694;2023-12-20T01:33:34;-0.60;99.90
16158;DHT22;8184;60.256;18.694;2023-12-20T01:36:02;-0.60;99.90
16158;DHT22;8184;60.256;18.694;2023-12-20T01:38:32;-0.60;99.90
16158;DHT22;8184;60.256;18.694;2023-12-20T01:41:00;-0.60;99.90
16158;DHT22;8184;60.256;18.694;2023-12-20T01:43:29;-0.60;99.90
16158;DHT22;8184;60.256;18.694;2023-12-20T01:46:06;-0.60;99.90
16158;DHT22;8184;60.256;18.694;2023-12-20T01:48:35;-0.60;99.90
16158;DHT22;8184;60.256;18.694;2023-12-20T01:51:03;-0.70;99.90
16158;DHT22;8184;60.256;18.694;2023-12-20T01:53:33;-0.70;99.90
16158;DHT22;8184;60.256;18.694;2023-12-20T01:56:02;-0.60;99.90
16158;DHT22;8184;60.256;18.694;2023-12-20T01:58:30;-0.70;99.90
16158;DHT22;8184;60.256;18.694;2023-12-20T02:00:59;-0.70;99.90
16158;DHT22;8184;60.256;18.694;2023-12-20T02:03:27;-0.70;99.90
16158;DHT22;8184;60.256;18.694;2023-12-20T02:05:56;-0.70;99.90
16158;DHT22;8184;60.256;18.694;2023-12-20T02:08:24;-0.70;99.90
16158;DHT22;8184;60.256;18.694;2023-12-20T02:10:54;-0.70;99.90
16158;DHT22;8184;60.256;18.694;2023-12-20T02:13:23;-0.70;99.90
16158;DHT22;8184;60.256;18.694;2023-12-20T02:15:52;-0.70;99.90
16158;DHT22;8184;60.256;18.694;2023-12-20T02:18:20;-0.80;99.90
16158;DHT22;8184;60.256;18.694;2023-12-20T02:20:49;-0.80;99.90
16158;DHT22;8184;60.256;18.694;2023-12-20T02:23:18;-0.80;99.90
16158;DHT22;8184;60.256;18.694;2023-12-20T02:25:49;-0.70;99.90
16158;DHT22;8184;60.256;18.694;2023-12-20T02:28:17;-0.70;99.90
16158;DHT22;8184;60.256;18.694;2023-12-20T02:30:46;-0.80;99.90
16158;DHT22;8184;60.256;18.694;2023-12-20T02:33:16;-0.90;99.90
16158;DHT22;8184;60.256;18.694;2023-12-20T02:35:44;-0.80;99.90
16158;DHT22;8184;60.256;18.694;2023-12-20T02:38:13;-0.80;99.90
16158;DHT22;8184;60.256;18.694;2023-12-20T02:40:44;-0.70;99.90
16158;DHT22;8184;60.256;18.694;2023-12-20T02:43:15;-0.90;99.90
16158;DHT22;8184;60.256;18.694;2023-12-20T02:45:44;-0.90;99.90
16158;DHT22;8184;60.256;18.694;2023-12-20T02:48:12;-0.90;99.90
16158;DHT22;8184;60.256;18.694;2023-12-20T02:50:41;-0.90;99.90
16158;DHT22;8184;60.256;18.694;2023-12-20T02:53:11;-0.90;99.90
16158;DHT22;8184;60.256;18.694;2023-12-20T02:55:39;-0.90;99.90
16158;DHT22;8184;60.256;18.694;2023-12-20T02:58:09;-0.90;99.90
16158;DHT22;8184;60.256;18.694;2023-12-20T03:00:37;-0.90;99.90
16158;DHT22;8184;60.256;18.694;2023-12-20T03:03:08;-0.80;99.90
16158;DHT22;8184;60.256;18.694;2023-12-20T03:05:36;-0.90;99.90
16158;DHT22;8184;60.256;18.694;2023-12-20T03:08:05;-0.90;99.90
16158;DHT22;8184;60.256;18.694;2023-12-20T03:10:33;-0.80;99.90
16158;DHT22;8184;60.256;18.694;2023-12-20T03:13:02;-0.70;99.90
16158;DHT22;8184;60.256;18.694;2023-12-20T03:15:32;-0.70;99.90
16158;DHT22;8184;60.256;18.694;2023-12-20T03:18:00;-0.80;99.90
16158;DHT22;8184;60.256;18.694;2023-12-20T03:20:29;-1.00;99.90
16158;DHT22;8184;60.256;18.694;2023-12-20T03:23:00;-1.00;99.90
16158;DHT22;8184;60.256;18.694;2023-12-20T03:25:28;-1.00;99.90
16158;DHT22;8184;60.256;18.694;2023-12-20T03:27:56;-0.80;99.90
16158;DHT22;8184;60.256;18.694;2023-12-20T03:30:25;-0.80;99.90
16158;DHT22;8184;60.256;18.694;2023-12-20T03:32:57;-1.00;99.90
16158;DHT22;8184;60.256;18.694;2023-12-20T03:35:25;-1.10;99.90
16158;DHT22;8184;60.256;18.694;2023-12-20T03:37:53;-1.00;99.90
16158;DHT22;8184;60.256;18.694;2023-12-20T03:40:21;-1.10;99.90
16158;DHT22;8184;60.256;18.694;2023-12-20T03:42:50;-1.20;99.90
16158;DHT22;8184;60.256;18.694;2023-12-20T03:45:18;-1.20;99.90
16158;DHT22;8184;60.256;18.694;2023-12-20T03:47:46;-1.30;99.90
16158;DHT22;8184;60.256;18.694;2023-12-20T03:50:17;-1.30;99.90
16158;DHT22;8184;60.256;18.694;2023-12-20T03:52:45;-1.40;99.90
16158;DHT22;8184;60.256;18.694;2023-12-20T03:55:16;-1.40;99.90
16158;DHT22;8184;60.256;18.694;2023-12-20T03:57:45;-1.40;99.90
16158;DHT22;8184;60.256;18.694;2023-12-20T04:00:14;-1.50;99.90
16158;DHT22;8184;60.256;18.694;2023-12-20T04:02:42;-1.50;99.90
16158;DHT22;8184;60.256;18.694;2023-12-20T04:05:13;-1.50;99.90
16158;DHT22;8184;60.256;18.694;2023-12-20T04:07:43;-1.50;99.90
16158;DHT22;8184;60.256;18.694;2023-12-20T04:10:12;-1.40;99.90
16158;DHT22;8184;60.256;18.694;2023-12-20T04:12:40;-1.40;99.90
16158;DHT22;8184;60.256;18.694;2023-12-20T04:15:09;-1.40;99.90
16158;DHT22;8184;60.256;18.694;2023-12-20T04:17:38;-1.50;99.90
16158;DHT22;8184;60.256;18.694;2023-12-20T04:20:07;-1.50;99.90
16158;DHT22;8184;60.256;18.694;2023-12-20T04:22:36;-1.50;99.90
16158;DHT22;8184;60.256;18.694;2023-12-20T04:25:06;-1.50;99.90
16158;DHT22;8184;60.256;18.694;2023-12-20T04:27:34;-1.50;99.90
16158;DHT22;8184;60.256;18.694;2023-12-20T04:30:03;-1.50;99.90
16158;DHT22;8184;60.256;18.694;2023-12-20T04:32:31;-1.60;99.90
16158;DHT22;8184;60.256;18.694;2023-12-20T04:35:00;-1.60;99.90
16158;DHT22;8184;60.256;18.694;2023-12-20T04:37:28;-1.70;99.90
16158;DHT22;8184;60.256;18.694;2023-12-20T04:39:57;-1.70;99.90
16158;DHT22;8184;60.256;18.694;2023-12-20T04:42:27;-1.70;99.90
16158;DHT22;8184;60.256;18.694;2023-12-20T04:44:55;-1.70;99.90
16158;DHT22;8184;60.256;18.694;2023-12-20T04:47:23;-1.70;99.90
16158;DHT22;8184;60.256;18.694;2023-12-20T04:49:52;-1.80;99.90
16158;DHT22;8184;60.256;18.694;2023-12-20T04:52:20;-1.80;99.90
16158;DHT22;8184;60.256;18.694;2023-12-20T04:54:49;-1.70;99.90
16158;DHT22;8184;60.256;18.694;2023-12-20T04:57:17;-1.80;99.90
16158;DHT22;8184;60.256;18.694;2023-12-20T04:59:47;-1.80;99.90
16158;DHT22;8184;60.256;18.694;2023-12-20T05:02:15;-1.80;99.90
16158;DHT22;8184;60.256;18.694;2023-12-20T05:04:46;-1.80;99.90
16158;DHT22;8184;60.256;18.694;2023-12-20T05:07:14;-1.90;99.90
16158;DHT22;8184;60.256;18.694;2023-12-20T05:09:43;-1.90;99.90
16158;DHT22;8184;60.256;18.694;2023-12-20T05:12:11;-1.90;99.90
16158;DHT22;8184;60.256;18.694;2023-12-20T05:14:39;-2.00;99.90
16158;DHT22;8184;60.256;18.694;2023-12-20T05:17:09;-1.90;99.90
16158;DHT22;8184;60.256;18.694;2023-12-20T05:19:37;-2.00;99.90
16158;DHT22;8184;60.256;18.694;2023-12-20T05:22:08;-2.10;99.90
16158;DHT22;8184;60.256;18.694;2023-12-20T05:24:36;-2.10;99.90
16158;DHT22;8184;60.256;18.694;2023-12-20T05:27:05;-2.10;99.90
16158;DHT22;8184;60.256;18.694;2023-12-20T05:29:33;-2.10;99.90
16158;DHT22;8184;60.256;18.694;2023-12-20T05:32:01;-2.10;99.90
16158;DHT22;8184;60.256;18.694;2023-12-20T05:34:32;-2.20;99.90
16158;DHT22;8184;60.256;18.694;2023-12-20T05:37:01;-2.20;99.90
16158;DHT22;8184;60.256;18.694;2023-12-20T05:39:29;-2.20;99.90
16158;DHT22;8184;60.256;18.694;2023-12-20T05:41:58;-2.30;99.90
16158;DHT22;8184;60.256;18.694;2023-12-20T05:44:29;-2.30;99.90
16158;DHT22;8184;60.256;18.694;2023-12-20T05:46:57;-2.30;99.90
16158;DHT22;8184;60.256;18.694;2023-12-20T05:49:25;-2.30;99.90
16158;DHT22;8184;60.256;18.694;2023-12-20T05:51:55;-2.40;99.90
16158;DHT22;8184;60.256;18.694;2023-12-20T05:54:23;-2.40;99.90
16158;DHT22;8184;60.256;18.694;2023-12-20T05:56:52;-2.40;99.90
16158;DHT22;8184;60.256;18.694;2023-12-20T05:59:20;-2.40;99.90
16158;DHT22;8184;60.256;18.694;2023-12-20T06:01:51;-2.40;99.90
16158;DHT22;8184;60.256;18.694;2023-12-20T06:04:19;-2.50;99.90
16158;DHT22;8184;60.256;18.694;2023-12-20T06:06:49;-2.40;99.90
16158;DHT22;8184;60.256;18.694;2023-12-20T06:09:19;-2.40;99.90
16158;DHT22;8184;60.256;18.694;2023-12-20T06:11:47;-2.40;99.90
16158;DHT22;8184;60.256;18.694;2023-12-20T06:14:16;-2.50;99.90
16158;DHT22;8184;60.256;18.694;2023-12-20T06:16:44;-2.50;99.90
16158;DHT22;8184;60.256;18.694;2023-12-20T06:19:13;-2.50;99.90
16158;DHT22;8184;60.256;18.694;2023-12-20T06:21:41;-2.50;99.90
16158;DHT22;8184;60.256;18.694;2023-12-20T06:24:11;-2.50;99.90
16158;DHT22;8184;60.256;18.694;2023-12-20T06:26:40;-2.60;99.90
16158;DHT22;8184;60.256;18.694;2023-12-20T06:29:09;-2.60;99.90
16158;DHT22;8184;60.256;18.694;2023-12-20T06:31:37;-2.60;99.90
16158;DHT22;8184;60.256;18.694;2023-12-20T06:34:06;-2.50;99.90
16158;DHT22;8184;60.256;18.694;2023-12-20T06:36:34;-2.50;99.90
16158;DHT22;8184;60.256;18.694;2023-12-20T06:39:03;-2.50;99.90
16158;DHT22;8184;60.256;18.694;2023-12-20T06:41:31;-2.50;99.90
16158;DHT22;8184;60.256;18.694;2023-12-20T06:44:01;-2.50;99.90
16158;DHT22;8184;60.256;18.694;2023-12-20T06:46:29;-2.50;99.90
16158;DHT22;8184;60.256;18.694;2023-12-20T06:48:58;-2.50;99.90
16158;DHT22;8184;60.256;18.694;2023-12-20T06:51:26;-2.50;99.90
16158;DHT22;8184;60.256;18.694;2023-12-20T06:53:55;-2.60;99.90
16158;DHT22;8184;60.256;18.694;2023-12-20T06:56:22;-2.60;99.90
16158;DHT22;8184;60.256;18.694;2023-12-20T06:58:50;-2.60;99.90
16158;DHT22;8184;60.256;18.694;2023-12-20T07:01:20;-2.60;99.90
16158;DHT22;8184;60.256;18.694;2023-12-20T07:03:49;-2.60;99.90
16158;DHT22;8184;60.256;18.694;2023-12-20T07:06:18;-2.60;99.90
16158;DHT22;8184;60.256;18.694;2023-12-20T07:08:48;-2.60;99.90
16158;DHT22;8184;60.256;18.694;2023-12-20T07:11:16;-2.70;99.90
16158;DHT22;8184;60.256;18.694;2023-12-20T07:13:45;-2.70;99.90
16158;DHT22;8184;60.256;18.694;2023-12-20T07:16:13;-2.60;99.90
16158;DHT22;8184;60.256;18.694;2023-12-20T07:18:43;-2.70;99.90
16158;DHT22;8184;60.256;18.694;2023-12-20T07:21:13;-2.70;99.90
16158;DHT22;8184;60.256;18.694;2023-12-20T07:23:42;-2.70;99.90
16158;DHT22;8184;60.256;18.694;2023-12-20T07:26:10;-2.80;99.90
16158;DHT22;8184;60.256;18.694;2023-12-20T07:28:39;-2.80;99.90
16158;DHT22;8184;60.256;18.694;2023-12-20T07:31:07;-2.80;99.90
16158;DHT22;8184;60.256;18.694;2023-12-20T07:33:36;-2.80;99.90
16158;DHT22;8184;60.256;18.694;2023-12-20T07:36:07;-2.80;99.90
16158;DHT22;8184;60.256;18.694;2023-12-20T07:38:35;-2.70;99.90
16158;DHT22;8184;60.256;18.694;2023-12-20T07:41:04;-2.70;99.90
16158;DHT22;8184;60.256;18.694;2023-12-20T07:43:32;-2.70;99.90
16158;DHT22;8184;60.256;18.694;2023-12-20T07:46:03;-2.60;99.90
16158;DHT22;8184;60.256;18.694;2023-12-20T07:48:34;-2.60;99.90
16158;DHT22;8184;60.256;18.694;2023-12-20T07:51:03;-2.60;99.90
16158;DHT22;8184;60.256;18.694;2023-12-20T07:53:34;-2.60;99.90
16158;DHT22;8184;60.256;18.694;2023-12-20T07:56:05;-2.60;99.90
16158;DHT22;8184;60.256;18.694;2023-12-20T07:58:41;-2.50;99.90
16158;DHT22;8184;60.256;18.694;2023-12-20T08:01:18;-2.40;99.90
16158;DHT22;8184;60.256;18.694;2023-12-20T08:03:48;-2.40;99.90
16158;DHT22;8184;60.256;18.694;2023-12-20T08:06:17;-2.40;99.90
16158;DHT22;8184;60.256;18.694;2023-12-20T08:08:47;-2.30;99.90
16158;DHT22;8184;60.256;18.694;2023-12-20T08:11:27;-2.40;99.90
16158;DHT22;8184;60.256;18.694;2023-12-20T08:13:56;-2.30;99.90
16158;DHT22;8184;60.256;18.694;2023-12-20T08:16:24;-2.30;99.90
16158;DHT22;8184;60.256;18.694;2023-12-20T08:18:52;-2.30;99.90
16158;DHT22;8184;60.256;18.694;2023-12-20T08:21:21;-2.30;99.90
16158;DHT22;8184;60.256;18.694;2023-12-20T08:23:51;-2.30;99.90
16158;DHT22;8184;60.256;18.694;2023-12-20T08:26:19;-2.30;99.90
16158;DHT22;8184;60.256;18.694;2023-12-20T08:28:50;-2.30;99.90
16158;DHT22;8184;60.256;18.694;2023-12-20T08:31:18;-2.30;99.90
16158;DHT22;8184;60.256;18.694;2023-12-20T08:33:47;-2.30;99.90
16158;DHT22;8184;60.256;18.694;2023-12-20T08:36:16;-2.30;99.90
16158;DHT22;8184;60.256;18.694;2023-12-20T08:38:45;-2.40;99.90
16158;DHT22;8184;60.256;18.694;2023-12-20T08:41:15;-2.40;99.90
16158;DHT22;8184;60.256;18.694;2023-12-20T08:43:43;-2.40;99.90
16158;DHT22;8184;60.256;18.694;2023-12-20T08:46:12;-2.40;99.90
16158;DHT22;8184;60.256;18.694;2023-12-20T08:48:41;-2.40;99.90
16158;DHT22;8184;60.256;18.694;2023-12-20T08:51:10;-2.30;99.90
16158;DHT22;8184;60.256;18.694;2023-12-20T08:53:38;-2.30;99.90
16158;DHT22;8184;60.256;18.694;2023-12-20T08:56:06;-2.30;99.90
16158;DHT22;8184;60.256;18.694;2023-12-20T08:58:36;-2.30;99.90
16158;DHT22;8184;60.256;18.694;2023-12-20T09:01:04;-2.30;99.90
16158;DHT22;8184;60.256;18.694;2023-12-20T09:03:33;-2.30;99.90
16158;DHT22;8184;60.256;18.694;2023-12-20T09:06:01;-2.30;99.90
16158;DHT22;8184;60.256;18.694;2023-12-20T09:08:29;-2.30;99.90
16158;DHT22;8184;60.256;18.694;2023-12-20T09:10:57;-2.30;99.90
16158;DHT22;8184;60.256;18.694;2023-12-20T09:13:26;-2.30;99.90
16158;DHT22;8184;60.256;18.694;2023-12-20T09:15:57;-2.30;99.90
16158;DHT22;8184;60.256;18.694;2023-12-20T09:18:25;-2.20;99.90
16158;DHT22;8184;60.256;18.694;2023-12-20T09:20:54;-2.20;99.90
16158;DHT22;8184;60.256;18.694;2023-12-20T09:23:22;-2.20;99.90
16158;DHT22;8184;60.256;18.694;2023-12-20T09:25:50;-2.20;99.90
16158;DHT22;8184;60.256;18.694;2023-12-20T09:28:23;-2.20;99.90
16158;DHT22;8184;60.256;18.694;2023-12-20T09:30:54;-2.10;99.90
16158;DHT22;8184;60.256;18.694;2023-12-20T09:33:24;-2.10;99.90
16158;DHT22;8184;60.256;18.694;2023-12-20T09:35:53;-2.10;99.90
16158;DHT22;8184;60.256;18.694;2023-12-20T09:38:21;-2.00;99.90
16158;DHT22;8184;60.256;18.694;2023-12-20T09:40:50;-1.90;99.90
16158;DHT22;8184;60.256;18.694;2023-12-20T09:43:19;-2.00;99.90
16158;DHT22;8184;60.256;18.694;2023-12-20T09:45:48;-2.00;99.90
16158;DHT22;8184;60.256;18.694;2023-12-20T09:48:17;-2.00;99.90
16158;DHT22;8184;60.256;18.694;2023-12-20T09:50:48;-2.00;99.90
16158;DHT22;8184;60.256;18.694;2023-12-20T09:53:19;-1.90;99.90
16158;DHT22;8184;60.256;18.694;2023-12-20T09:55:50;-1.90;99.90
16158;DHT22;8184;60.256;18.694;2023-12-20T09:58:19;-1.90;99.90
16158;DHT22;8184;60.256;18.694;2023-12-20T10:00:50;-1.80;99.90
16158;DHT22;8184;60.256;18.694;2023-12-20T10:03:22;-1.80;99.90
16158;DHT22;8184;60.256;18.694;2023-12-20T10:05:54;-1.70;99.90
16158;DHT22;8184;60.256;18.694;2023-12-20T10:08:22;-1.70;99.90
16158;DHT22;8184;60.256;18.694;2023-12-20T10:10:52;-1.80;99.90
16158;DHT22;8184;60.256;18.694;2023-12-20T10:13:20;-1.70;99.90
16158;DHT22;8184;60.256;18.694;2023-12-20T10:15:49;-1.80;99.90
16158;DHT22;8184;60.256;18.694;2023-12-20T10:18:17;-1.80;99.90
16158;DHT22;8184;60.256;18.694;2023-12-20T10:20:46;-1.80;99.90
16158;DHT22;8184;60.256;18.694;2023-12-20T10:23:16;-1.70;99.90
16158;DHT22;8184;60.256;18.694;2023-12-20T10:25:52;-1.80;99.90
16158;DHT22;8184;60.256;18.694;2023-12-20T10:28:23;-1.70;99.90
16158;DHT22;8184;60.256;18.694;2023-12-20T10:30:54;-1.70;99.90
16158;DHT22;8184;60.256;18.694;2023-12-20T10:33:24;-1.70;99.90
16158;DHT22;8184;60.256;18.694;2023-12-20T10:35:53;-1.70;99.90
16158;DHT22;8184;60.256;18.694;2023-12-20T10:38:23;-1.70;99.90
16158;DHT22;8184;60.256;18.694;2023-12-20T10:40:54;-1.60;99.90
16158;DHT22;8184;60.256;18.694;2023-12-20T10:43:24;-1.70;99.90
16158;DHT22;8184;60.256;18.694;2023-12-20T10:45:54;-1.70;99.90
16158;DHT22;8184;60.256;18.694;2023-12-20T10:48:25;-1.80;99.90
16158;DHT22;8184;60.256;18.694;2023-12-20T10:50:57;-1.80;99.90
16158;DHT22;8184;60.256;18.694;2023-12-20T10:53:27;-1.80;99.90
16158;DHT22;8184;60.256;18.694;2023-12-20T10:55:55;-1.80;99.90
16158;DHT22;8184;60.256;18.694;2023-12-20T10:58:24;-1.80;99.90
16158;DHT22;8184;60.256;18.694;2023-12-20T11:00:54;-1.80;99.90
16158;DHT22;8184;60.256;18.694;2023-12-20T11:03:26;-1.80;99.90
16158;DHT22;8184;60.256;18.694;2023-12-20T11:05:58;-1.80;99.90
16158;DHT22;8184;60.256;18.694;2023-12-20T11:08:32;-1.80;99.90
16158;DHT22;8184;60.256;18.694;2023-12-20T11:11:02;-1.90;99.90
16158;DHT22;8184;60.256;18.694;2023-12-20T11:13:32;-1.90;99.90
16158;DHT22;8184;60.256;18.694;2023-12-20T11:16:02;-1.90;99.90
16158;DHT22;8184;60.256;18.694;2023-12-20T11:18:31;-2.00;99.90
16158;DHT22;8184;60.256;18.694;2023-12-20T11:21:00;-2.00;99.90
16158;DHT22;8184;60.256;18.694;2023-12-20T11:23:30;-2.00;99.90
16158;DHT22;8184;60.256;18.694;2023-12-20T11:26:02;-2.00;99.90
16158;DHT22;8184;60.256;18.694;2023-12-20T11:28:30;-1.90;99.90
16158;DHT22;8184;60.256;18.694;2023-12-20T11:31:00;-2.00;99.90
16158;DHT22;8184;60.256;18.694;2023-12-20T11:33:30;-2.00;99.90
16158;DHT22;8184;60.256;18.694;2023-12-20T11:35:59;-2.00;99.90
16158;DHT22;8184;60.256;18.694;2023-12-20T11:38:27;-2.00;99.90
16158;DHT22;8184;60.256;18.694;2023-12-20T11:41:00;-2.10;99.90
16158;DHT22;8184;60.256;18.694;2023-12-20T11:43:30;-2.10;99.90
16158;DHT22;8184;60.256;18.694;2023-12-20T11:46:03;-2.20;99.90
16158;DHT22;8184;60.256;18.694;2023-12-20T11:48:34;-2.10;99.90
16158;DHT22;8184;60.256;18.694;2023-12-20T11:51:02;-2.20;99.90
16158;DHT22;8184;60.256;18.694;2023-12-20T11:53:37;-2.10;99.90
16158;DHT22;8184;60.256;18.694;2023-12-20T11:56:07;-2.10;99.90
16158;DHT22;8184;60.256;18.694;2023-12-20T11:58:35;-2.00;99.90
16158;DHT22;8184;60.256;18.694;2023-12-20T12:01:04;-2.10;99.90
16158;DHT22;8184;60.256;18.694;2023-12-20T12:03:35;-2.10;99.90
16158;DHT22;8184;60.256;18.694;2023-12-20T12:06:04;-2.00;99.90
16158;DHT22;8184;60.256;18.694;2023-12-20T12:08:32;-2.00;99.90
16158;DHT22;8184;60.256;18.694;2023-12-20T12:11:00;-2.00;99.90
16158;DHT22;8184;60.256;18.694;2023-12-20T12:13:30;-2.00;99.90
16158;DHT22;8184;60.256;18.694;2023-12-20T12:15:59;-2.10;99.90
16158;DHT22;8184;60.256;18.694;2023-12-20T12:18:27;-2.10;99.90
16158;DHT22;8184;60.256;18.694;2023-12-20T12:20:59;-2.20;99.90
16158;DHT22;8184;60.256;18.694;2023-12-20T12:23:28;-2.10;99.90
16158;DHT22;8184;60.256;18.694;2023-12-20T12:25:56;-2.00;99.90
16158;DHT22;8184;60.256;18.694;2023-12-20T12:28:25;-2.10;99.90
16158;DHT22;8184;60.256;18.694;2023-12-20T12:30:59;-2.00;99.90
16158;DHT22;8184;60.256;18.694;2023-12-20T12:33:28;-2.10;99.90
16158;DHT22;8184;60.256;18.694;2023-12-20T12:35:56;-2.10;99.90
16158;DHT22;8184;60.256;18.694;2023-12-20T12:38:25;-2.10;99.90
16158;DHT22;8184;60.256;18.694;2023-12-20T12:40:54;-2.10;99.90
16158;DHT22;8184;60.256;18.694;2023-12-20T12:43:22;-2.10;99.90
16158;DHT22;8184;60.256;18.694;2023-12-20T12:45:51;-2.10;99.90
16158;DHT22;8184;60.256;18.694;2023-12-20T12:48:22;-2.10;99.90
16158;DHT22;8184;60.256;18.694;2023-12-20T12:50:50;-2.10;99.90
16158;DHT22;8184;60.256;18.694;2023-12-20T12:53:20;-2.10;99.90
16158;DHT22;8184;60.256;18.694;2023-12-20T12:55:48;-2.10;99.90
16158;DHT22;8184;60.256;18.694;2023-12-20T12:58:16;-2.10;99.90
16158;DHT22;8184;60.256;18.694;2023-12-20T13:00:44;-2.20;99.90
16158;DHT22;8184;60.256;18.694;2023-12-20T13:03:13;-2.10;99.90
16158;DHT22;8184;60.256;18.694;2023-12-20T13:05:43;-2.10;99.90
16158;DHT22;8184;60.256;18.694;2023-12-20T13:08:13;-2.00;99.90
16158;DHT22;8184;60.256;18.694;2023-12-20T13:10:41;-1.80;99.90
16158;DHT22;8184;60.256;18.694;2023-12-20T13:13:09;-1.70;99.90
16158;DHT22;8184;60.256;18.694;2023-12-20T13:15:38;-1.50;99.90
16158;DHT22;8184;60.256;18.694;2023-12-20T13:18:07;-1.30;99.90
16158;DHT22;8184;60.256;18.694;2023-12-20T13:20:35;-1.30;99.90
16158;DHT22;8184;60.256;18.694;2023-12-20T13:23:07;-1.10;99.90
16158;DHT22;8184;60.256;18.694;2023-12-20T13:25:35;-1.00;99.90
16158;DHT22;8184;60.256;18.694;2023-12-20T13:28:04;-0.70;99.90
16158;DHT22;8184;60.256;18.694;2023-12-20T13:30:32;-0.70;99.90
16158;DHT22;8184;60.256;18.694;2023-12-20T13:33:01;-0.60;99.90
16158;DHT22;8184;60.256;18.694;2023-12-20T13:35:29;-0.50;99.90
16158;DHT22;8184;60.256;18.694;2023-12-20T13:37:59;-0.40;99.90
16158;DHT22;8184;60.256;18.694;2023-12-20T13:40:28;-0.40;99.90
16158;DHT22;8184;60.256;18.694;2023-12-20T13:42:57;-0.30;99.90
16158;DHT22;8184;60.256;18.694;2023-12-20T13:45:25;-0.30;99.90
16158;DHT22;8184;60.256;18.694;2023-12-20T13:47:54;-0.10;99.90
16158;DHT22;8184;60.256;18.694;2023-12-20T13:50:22;-0.10;99.90
16158;DHT22;8184;60.256;18.694;2023-12-20T13:52:50;-0.10;99.90
16158;DHT22;8184;60.256;18.694;2023-12-20T13:55:19;-0.10;99.90
16158;DHT22;8184;60.256;18.694;2023-12-20T13:57:50;-0.10;99.90
16158;DHT22;8184;60.256;18.694;2023-12-20T14:00:22;0.00;99.90
16158;DHT22;8184;60.256;18.694;2023-12-20T14:02:50;0.10;99.90
16158;DHT22;8184;60.256;18.694;2023-12-20T14:05:18;0.10;99.90
16158;DHT22;8184;60.256;18.694;2023-12-20T14:07:54;0.20;99.90
16158;DHT22;8184;60.256;18.694;2023-12-20T14:10:24;0.20;99.90
16158;DHT22;8184;60.256;18.694;2023-12-20T14:12:54;0.20;99.90
16158;DHT22;8184;60.256;18.694;2023-12-20T14:15:23;0.20;99.90
16158;DHT22;8184;60.256;18.694;2023-12-20T14:17:52;0.30;99.90
16158;DHT22;8184;60.256;18.694;2023-12-20T14:20:21;0.30;99.90
16158;DHT22;8184;60.256;18.694;2023-12-20T14:29:55;0.40;99.90
16158;DHT22;8184;60.256;18.694;2023-12-20T14:32:24;0.40;99.90
16158;DHT22;8184;60.256;18.694;2023-12-20T14:34:53;0.40;99.90
16158;DHT22;8184;60.256;18.694;2023-12-20T14:37:23;0.40;99.90
16158;DHT22;8184;60.256;18.694;2023-12-20T14:39:51;0.30;99.90
16158;DHT22;8184;60.256;18.694;2023-12-20T14:42:21;0.30;99.90
16158;DHT22;8184;60.256;18.694;2023-12-20T14:44:50;0.20;99.90
16158;DHT22;8184;60.256;18.694;2023-12-20T14:47:20;0.20;99.90
16158;DHT22;8184;60.256;18.694;2023-12-20T14:49:48;0.20;99.90
16158;DHT22;8184;60.256;18.694;2023-12-20T14:52:17;0.20;99.90
16158;DHT22;8184;60.256;18.694;2023-12-20T14:54:45;0.20;99.90
16158;DHT22;8184;60.256;18.694;2023-12-20T14:57:14;0.10;99.90
16158;DHT22;8184;60.256;18.694;2023-12-20T14:59:42;0.10;99.90
16158;DHT22;8184;60.256;18.694;2023-12-20T15:02:11;0.10;99.90
16158;DHT22;8184;60.256;18.694;2023-12-20T15:04:41;0.00;99.90
16158;DHT22;8184;60.256;18.694;2023-12-20T15:07:09;0.00;99.90
16158;DHT22;8184;60.256;18.694;2023-12-20T15:09:37;0.10;99.90
16158;DHT22;8184;60.256;18.694;2023-12-20T15:12:07;0.10;99.90
16158;DHT22;8184;60.256;18.694;2023-12-20T15:14:38;0.10;99.90
16158;DHT22;8184;60.256;18.694;2023-12-20T15:17:06;0.10;99.90
16158;DHT22;8184;60.256;18.694;2023-12-20T15:19:35;0.10;99.90
16158;DHT22;8184;60.256;18.694;2023-12-20T15:22:05;0.10;99.90
16158;DHT22;8184;60.256;18.694;2023-12-20T15:24:33;0.10;99.90
16158;DHT22;8184;60.256;18.694;2023-12-20T15:27:07;0.10;99.90
16158;DHT22;8184;60.256;18.694;2023-12-20T15:29:35;0.20;99.90
16158;DHT22;8184;60.256;18.694;2023-12-20T15:32:04;0.20;99.90
16158;DHT22;8184;60.256;18.694;2023-12-20T15:34:32;0.20;99.90
16158;DHT22;8184;60.256;18.694;2023-12-20T15:37:01;0.20;99.90
16158;DHT22;8184;60.256;18.694;2023-12-20T15:39:31;0.20;99.90
16158;DHT22;8184;60.256;18.694;2023-12-20T15:41:59;0.20;99.90
16158;DHT22;8184;60.256;18.694;2023-12-20T15:44:27;0.30;99.90
16158;DHT22;8184;60.256;18.694;2023-12-20T15:46:55;0.20;99.90
16158;DHT22;8184;60.256;18.694;2023-12-20T15:49:23;0.20;99.90
16158;DHT22;8184;60.256;18.694;2023-12-20T15:51:53;0.20;99.90